Time;durP1;ratioP1;P1;durP2;ratioP2;P2;SDS_P1;SDS_P2;PMS_P1;PMS_P2;Temp;Humidity;BMP_temperature;BMP_pressure;BME280_temperature;BME280_humidity;BME280_pressure;Samples;Min_cycle;Max_cycle;Signal;HPM_P1;HPM_P2
2024/04/09 00:00:41;;;;;;;12.77;3.80;;;;;;;;;;5483951;26;20259;-56
2024/04/09 00:03:07;;;;;;;7.17;3.27;;;;;;;;;;5486321;26;20344;-56
2024/04/09 00:05:33;;;;;;;5.33;2.90;;;;;;;;;;5484566;26;20267;-56
2024/04/09 00:07:59;;;;;;;6.40;3.60;;;;;;;;;;5486346;26;20233;-59
2024/04/09 00:10:26;;;;;;;5.73;3.37;;;;;;;;;;5484196;26;20228;-58
2024/04/09 00:12:55;;;;;;;6.70;3.43;;;;;;;;;;5486452;26;20236;-59
2024/04/09 00:15:22;;;;;;;6.50;3.30;;;;;;;;;;5484053;26;20287;-58
2024/04/09 00:18:11;;;;;;;6.97;3.80;;;;;;;;;;5486438;26;20609;-58
2024/04/09 00:20:38;;;;;;;7.37;3.20;;;;;;;;;;5481792;26;20712;-58
2024/04/09 00:23:04;;;;;;;6.50;3.10;;;;;;;;;;5485072;26;20216;-58
2024/04/09 00:25:30;;;;;;;6.40;3.67;;;;;;;;;;5484476;26;20589;-59
2024/04/09 00:27:56;;;;;;;6.43;3.00;;;;;;;;;;5485659;26;20697;-58
2024/04/09 00:30:23;;;;;;;7.63;3.23;;;;;;;;;;5484710;26;20221;-59
2024/04/09 00:32:51;;;;;;;10.57;4.00;;;;;;;;;;5486024;26;20275;-59
2024/04/09 00:35:21;;;;;;;6.73;3.63;;;;;;;;;;5484017;26;20232;-59
2024/04/09 00:37:51;;;;;;;7.80;3.93;;;;;;;;;;5485870;26;20225;-58
2024/04/09 00:40:18;;;;;;;10.40;4.90;;;;;;;;;;5485153;26;20377;-59
2024/04/09 00:42:44;;;;;;;8.80;4.60;;;;;;;;;;5486981;26;20216;-59
2024/04/09 00:45:10;;;;;;;7.03;3.63;;;;;;;;;;5482649;26;20263;-59
2024/04/09 00:47:36;;;;;;;7.97;3.30;;;;;;;;;;5485571;26;20220;-60
2024/04/09 00:50:04;;;;;;;13.63;4.23;;;;;;;;;;5483878;26;21031;-59
2024/04/09 00:52:31;;;;;;;8.97;4.07;;;;;;;;;;5485502;26;20288;-59
2024/04/09 00:54:58;;;;;;;10.03;4.20;;;;;;;;;;5484586;26;20751;-58
2024/04/09 00:57:24;;;;;;;12.47;3.97;;;;;;;;;;5484915;26;20232;-58
2024/04/09 00:59:52;;;;;;;8.27;4.33;;;;;;;;;;5485425;26;20549;-58
2024/04/09 01:02:19;;;;;;;10.60;4.30;;;;;;;;;;5484070;26;20268;-59
2024/04/09 01:04:45;;;;;;;10.23;4.50;;;;;;;;;;5483447;26;20228;-59
2024/04/09 01:07:11;;;;;;;9.53;4.03;;;;;;;;;;5484518;26;20228;-58
2024/04/09 01:09:41;;;;;;;10.23;3.60;;;;;;;;;;5484235;26;20228;-59
2024/04/09 01:12:07;;;;;;;8.93;3.77;;;;;;;;;;5484247;26;20626;-59
2024/04/09 01:14:33;;;;;;;11.00;4.50;;;;;;;;;;5483815;26;20232;-60
2024/04/09 01:16:59;;;;;;;8.93;4.10;;;;;;;;;;5482233;26;20328;-59
2024/04/09 01:19:25;;;;;;;11.87;4.53;;;;;;;;;;5483317;26;20396;-58
2024/04/09 01:21:53;;;;;;;9.20;3.70;;;;;;;;;;5482808;26;20248;-59
2024/04/09 01:24:19;;;;;;;7.33;3.50;;;;;;;;;;5486591;26;20279;-58
2024/04/09 01:26:49;;;;;;;9.47;3.80;;;;;;;;;;5484141;26;20712;-58
2024/04/09 01:29:15;;;;;;;12.13;3.97;;;;;;;;;;5482496;26;20329;-58
2024/04/09 01:31:41;;;;;;;9.30;3.63;;;;;;;;;;5483853;26;20704;-58
2024/04/09 01:34:09;;;;;;;10.40;3.63;;;;;;;;;;5484044;26;20228;-58
2024/04/09 01:36:35;;;;;;;11.33;3.90;;;;;;;;;;5480574;26;20224;-59
2024/04/09 01:39:01;;;;;;;12.43;4.17;;;;;;;;;;5482520;26;20800;-59
2024/04/09 01:41:27;;;;;;;12.40;4.10;;;;;;;;;;5484115;26;20237;-58
2024/04/09 01:43:54;;;;;;;12.17;4.97;;;;;;;;;;5483097;26;20235;-59
2024/04/09 01:46:20;;;;;;;13.47;3.77;;;;;;;;;;5483131;26;20700;-59
2024/04/09 01:48:47;;;;;;;12.40;3.90;;;;;;;;;;5483938;26;20228;-58
2024/04/09 01:51:13;;;;;;;12.50;4.63;;;;;;;;;;5483845;26;20221;-59
2024/04/09 01:53:42;;;;;;;10.37;3.67;;;;;;;;;;5483149;26;20224;-59
2024/04/09 01:56:09;;;;;;;10.73;3.40;;;;;;;;;;5483459;26;20634;-59
2024/04/09 01:58:36;;;;;;;12.50;3.50;;;;;;;;;;5482417;26;20232;-59
2024/04/09 02:01:10;;;;;;;8.60;3.13;;;;;;;;;;5482772;26;20229;-59
2024/04/09 02:03:39;;;;;;;11.73;3.47;;;;;;;;;;5483742;26;20248;-58
2024/04/09 02:06:09;;;;;;;12.50;3.87;;;;;;;;;;5484107;26;20229;-57
2024/04/09 02:08:37;;;;;;;10.83;3.80;;;;;;;;;;5482041;26;20275;-58
2024/04/09 02:11:05;;;;;;;8.43;4.17;;;;;;;;;;5483558;26;20289;-58
2024/04/09 02:13:31;;;;;;;11.23;4.03;;;;;;;;;;5482610;26;20244;-58
2024/04/09 02:16:08;;;;;;;9.07;3.50;;;;;;;;;;5482716;26;20685;-58
2024/04/09 02:18:36;;;;;;;8.37;3.70;;;;;;;;;;5484125;26;20603;-58
2024/04/09 02:21:03;;;;;;;10.00;4.17;;;;;;;;;;5476315;26;20283;-58
2024/04/09 02:23:29;;;;;;;8.47;3.70;;;;;;;;;;5483414;26;20642;-58
2024/04/09 02:25:56;;;;;;;9.80;3.90;;;;;;;;;;5483364;26;20270;-58
2024/04/09 02:28:22;;;;;;;8.03;3.13;;;;;;;;;;5484137;26;20220;-58
2024/04/09 02:30:49;;;;;;;18.93;3.57;;;;;;;;;;5482325;26;20224;-58
2024/04/09 02:33:17;;;;;;;10.10;3.90;;;;;;;;;;5483601;26;20538;-58
2024/04/09 02:35:43;;;;;;;10.97;3.90;;;;;;;;;;5479331;26;20232;-58
2024/04/09 02:38:10;;;;;;;7.23;3.47;;;;;;;;;;5480606;26;20240;-58
2024/04/09 02:40:36;;;;;;;9.30;4.20;;;;;;;;;;5483525;26;20228;-58
2024/04/09 02:43:03;;;;;;;16.33;4.13;;;;;;;;;;5483366;26;20271;-59
2024/04/09 02:45:29;;;;;;;13.43;4.17;;;;;;;;;;5482910;26;20233;-56
2024/04/09 02:47:55;;;;;;;5.30;3.23;;;;;;;;;;5482332;26;20224;-57
2024/04/09 02:50:22;;;;;;;8.97;4.30;;;;;;;;;;5481789;26;20233;-58
2024/04/09 02:52:49;;;;;;;12.47;3.37;;;;;;;;;;5463139;26;20311;-58
2024/04/09 02:55:17;;;;;;;13.00;3.60;;;;;;;;;;5480096;26;20732;-58
2024/04/09 02:57:43;;;;;;;7.77;3.10;;;;;;;;;;5483311;26;20578;-58
2024/04/09 03:00:16;;;;;;;10.73;3.88;;;;;;;;;;5479656;26;20362;-57
2024/04/09 03:02:44;;;;;;;7.50;3.53;;;;;;;;;;5483097;26;20619;-57
2024/04/09 03:05:10;;;;;;;5.60;3.40;;;;;;;;;;5480619;26;20728;-58
2024/04/09 03:07:36;;;;;;;6.23;3.20;;;;;;;;;;5483144;26;20240;-57
2024/04/09 03:10:02;;;;;;;9.57;3.13;;;;;;;;;;5481010;26;20618;-57
2024/04/09 03:12:28;;;;;;;9.80;3.30;;;;;;;;;;5483075;26;20236;-57
2024/04/09 03:14:55;;;;;;;7.53;3.13;;;;;;;;;;5480929;26;20267;-58
2024/04/09 03:17:21;;;;;;;5.50;3.13;;;;;;;;;;5482616;26;20561;-57
2024/04/09 03:19:49;;;;;;;5.80;3.20;;;;;;;;;;5474934;26;20277;-56
2024/04/09 03:22:15;;;;;;;7.23;3.00;;;;;;;;;;5483069;26;20229;-56
2024/04/09 03:24:41;;;;;;;7.53;2.90;;;;;;;;;;5481683;26;20812;-58
2024/04/09 03:27:07;;;;;;;6.07;3.30;;;;;;;;;;5481546;26;20267;-57
2024/04/09 03:29:33;;;;;;;6.47;3.03;;;;;;;;;;5482521;26;20803;-57
2024/04/09 03:31:59;;;;;;;5.57;3.23;;;;;;;;;;5480362;26;20229;-57
2024/04/09 03:34:25;;;;;;;8.93;3.20;;;;;;;;;;5495516;26;20273;-57
2024/04/09 03:36:51;;;;;;;12.07;3.90;;;;;;;;;;5473752;26;20226;-57
2024/04/09 03:39:17;;;;;;;8.20;3.30;;;;;;;;;;5478874;26;20766;-57
2024/04/09 03:41:43;;;;;;;8.87;3.43;;;;;;;;;;5482536;26;20724;-57
2024/04/09 03:44:09;;;;;;;8.00;3.03;;;;;;;;;;5481325;26;20229;-57
2024/04/09 03:46:36;;;;;;;6.03;3.10;;;;;;;;;;5481957;26;20332;-57
2024/04/09 03:49:03;;;;;;;8.90;3.50;;;;;;;;;;5480709;26;20228;-57
2024/04/09 03:51:29;;;;;;;11.37;3.77;;;;;;;;;;5481278;26;20755;-57
2024/04/09 03:53:56;;;;;;;7.60;2.73;;;;;;;;;;5481438;26;20237;-57
2024/04/09 03:56:22;;;;;;;6.70;2.93;;;;;;;;;;5482494;26;20329;-57
2024/04/09 03:58:49;;;;;;;11.90;3.40;;;;;;;;;;5481475;26;20228;-57
2024/04/09 04:01:16;;;;;;;7.77;3.20;;;;;;;;;;5484598;26;20259;-57
2024/04/09 04:03:44;;;;;;;6.67;3.50;;;;;;;;;;5484810;26;20753;-58
2024/04/09 04:06:10;;;;;;;14.47;4.23;;;;;;;;;;5485004;26;20229;-57
2024/04/09 04:08:38;;;;;;;6.63;3.10;;;;;;;;;;5484947;26;20275;-57
2024/04/09 04:11:05;;;;;;;5.57;3.10;;;;;;;;;;5483516;26;20460;-57
2024/04/09 04:13:32;;;;;;;6.67;3.10;;;;;;;;;;5484702;26;20372;-57
2024/04/09 04:16:04;;;;;;;8.77;3.80;;;;;;;;;;5484083;26;20782;-57
2024/04/09 04:18:31;;;;;;;7.40;3.43;;;;;;;;;;5499318;26;20226;-58
2024/04/09 04:20:57;;;;;;;8.10;3.43;;;;;;;;;;5485807;26;20233;-57
2024/04/09 04:23:23;;;;;;;7.97;3.50;;;;;;;;;;5485711;26;20217;-57
2024/04/09 04:26:02;;;;;;;5.83;3.07;;;;;;;;;;5493785;26;20818;-57
2024/04/09 04:28:32;;;;;;;7.93;2.63;;;;;;;;;;5485848;26;20708;-57
2024/04/09 04:30:59;;;;;;;8.13;3.00;;;;;;;;;;5485282;26;20267;-57
2024/04/09 04:33:25;;;;;;;5.65;3.00;;;;;;;;;;5484289;26;20366;-57
2024/04/09 04:35:52;;;;;;;7.13;3.50;;;;;;;;;;5481578;26;20284;-57
2024/04/09 04:38:18;;;;;;;6.30;3.00;;;;;;;;;;5484340;26;20224;-58
2024/04/09 04:40:47;;;;;;;4.93;2.27;;;;;;;;;;5485139;26;20233;-58
2024/04/09 04:43:13;;;;;;;7.03;2.83;;;;;;;;;;5485426;26;20275;-58
2024/04/09 04:45:40;;;;;;;5.00;2.83;;;;;;;;;;5481340;26;20225;-58
2024/04/09 04:48:06;;;;;;;5.10;3.10;;;;;;;;;;5484840;26;20711;-58
2024/04/09 04:50:32;;;;;;;7.43;2.83;;;;;;;;;;5483231;26;20228;-58
2024/04/09 04:52:58;;;;;;;6.90;2.13;;;;;;;;;;5495851;26;20237;-58
2024/04/09 04:55:24;;;;;;;5.67;2.67;;;;;;;;;;5495422;26;20777;-58
2024/04/09 04:57:50;;;;;;;4.67;2.73;;;;;;;;;;5497443;26;20276;-58
2024/04/09 05:00:16;;;;;;;9.43;4.00;;;;;;;;;;5492283;26;20263;-58
2024/04/09 05:02:42;;;;;;;4.97;2.60;;;;;;;;;;5507443;26;20228;-58
2024/04/09 05:05:08;;;;;;;5.07;2.50;;;;;;;;;;5494399;26;20567;-59
2024/04/09 05:07:36;;;;;;;8.13;2.63;;;;;;;;;;5491657;26;20711;-58
2024/04/09 05:10:04;;;;;;;6.10;2.60;;;;;;;;;;5479419;26;20599;-58
2024/04/09 05:12:30;;;;;;;9.40;3.27;;;;;;;;;;5486597;26;20789;-58
2024/04/09 05:14:56;;;;;;;5.93;2.50;;;;;;;;;;5483083;26;20267;-58
2024/04/09 05:17:22;;;;;;;5.17;2.60;;;;;;;;;;5494352;26;20229;-58
2024/04/09 05:19:51;;;;;;;3.77;2.33;;;;;;;;;;5485932;26;20267;-58
2024/04/09 05:22:19;;;;;;;7.93;2.70;;;;;;;;;;5492755;26;20348;-58
2024/04/09 05:24:47;;;;;;;6.97;2.60;;;;;;;;;;5497468;26;20801;-58
2024/04/09 05:27:13;;;;;;;6.07;2.40;;;;;;;;;;5490533;26;20220;-58
2024/04/09 05:29:39;;;;;;;6.20;2.57;;;;;;;;;;5495637;26;20262;-58
2024/04/09 05:32:05;;;;;;;4.30;2.03;;;;;;;;;;5492233;26;20224;-58
2024/04/09 05:34:31;;;;;;;4.70;2.37;;;;;;;;;;5491968;26;20561;-58
2024/04/09 05:36:57;;;;;;;3.87;1.93;;;;;;;;;;5484517;26;20255;-59
2024/04/09 05:39:23;;;;;;;8.90;2.30;;;;;;;;;;5491995;26;20271;-59
2024/04/09 05:41:50;;;;;;;7.33;2.63;;;;;;;;;;5487023;26;20224;-60
2024/04/09 05:44:16;;;;;;;6.03;2.27;;;;;;;;;;5481173;26;20275;-60
2024/04/09 05:46:42;;;;;;;9.63;2.23;;;;;;;;;;5477472;26;20812;-60
2024/04/09 05:49:08;;;;;;;3.60;2.27;;;;;;;;;;5483448;26;20240;-60
2024/04/09 05:51:34;;;;;;;8.10;2.77;;;;;;;;;;5482079;26;20227;-60
2024/04/09 05:54:00;;;;;;;3.63;1.87;;;;;;;;;;5484567;26;20275;-58
2024/04/09 05:56:26;;;;;;;3.10;2.30;;;;;;;;;;5486848;26;21011;-59
2024/04/09 05:58:52;;;;;;;4.27;1.93;;;;;;;;;;5482625;26;20324;-58
2024/04/09 06:01:19;;;;;;;3.63;2.43;;;;;;;;;;5484642;26;20550;-59
2024/04/09 06:03:45;;;;;;;3.03;2.30;;;;;;;;;;5501211;26;20662;-59
2024/04/09 06:06:11;;;;;;;3.57;2.00;;;;;;;;;;5493694;26;20233;-59
2024/04/09 06:08:37;;;;;;;3.47;2.13;;;;;;;;;;5483647;26;20220;-59
2024/04/09 06:11:04;;;;;;;4.97;2.13;;;;;;;;;;5484434;26;20228;-59
2024/04/09 06:13:30;;;;;;;3.80;2.13;;;;;;;;;;5483968;26;20676;-60
2024/04/09 06:15:57;;;;;;;4.57;2.60;;;;;;;;;;5486814;26;20706;-60
2024/04/09 06:18:23;;;;;;;4.77;2.30;;;;;;;;;;5484647;26;20306;-59
2024/04/09 06:20:49;;;;;;;4.33;2.27;;;;;;;;;;5489813;26;20553;-58
2024/04/09 06:23:15;;;;;;;4.43;2.00;;;;;;;;;;5492369;26;20711;-58
2024/04/09 06:25:41;;;;;;;3.80;2.30;;;;;;;;;;5483711;26;20604;-58
2024/04/09 06:28:07;;;;;;;6.13;2.37;;;;;;;;;;5483992;26;20225;-58
2024/04/09 06:30:36;;;;;;;3.03;2.30;;;;;;;;;;5483741;26;21007;-57
2024/04/09 06:33:03;;;;;;;3.33;2.37;;;;;;;;;;5484515;26;20216;-57
2024/04/09 06:35:29;;;;;;;4.90;2.23;;;;;;;;;;5482579;26;20316;-58
2024/04/09 06:37:55;;;;;;;3.90;2.30;;;;;;;;;;5481028;26;20267;-57
2024/04/09 06:40:22;;;;;;;3.20;1.73;;;;;;;;;;5481088;26;20519;-57
2024/04/09 06:42:48;;;;;;;3.63;2.10;;;;;;;;;;5483514;26;20220;-57
2024/04/09 06:45:14;;;;;;;3.40;2.07;;;;;;;;;;5483375;26;20233;-56
2024/04/09 06:47:40;;;;;;;2.80;1.90;;;;;;;;;;5483909;26;20621;-57
2024/04/09 06:50:06;;;;;;;4.70;2.30;;;;;;;;;;5483283;26;20696;-58
2024/04/09 06:52:32;;;;;;;5.97;2.20;;;;;;;;;;5483356;26;20340;-59
2024/04/09 06:54:59;;;;;;;2.57;2.20;;;;;;;;;;5482333;26;20228;-57
2024/04/09 06:57:25;;;;;;;3.03;1.80;;;;;;;;;;5483662;26;20233;-57
2024/04/09 06:59:51;;;;;;;3.00;2.30;;;;;;;;;;5482979;26;20342;-57
2024/04/09 07:02:17;;;;;;;4.43;2.70;;;;;;;;;;5482268;26;20236;-59
2024/04/09 07:04:43;;;;;;;3.07;2.17;;;;;;;;;;5483818;26;20364;-59
2024/04/09 07:07:09;;;;;;;3.90;2.67;;;;;;;;;;5481632;26;20346;-58
2024/04/09 07:09:35;;;;;;;3.27;2.87;;;;;;;;;;5483117;26;20280;-58
2024/04/09 07:12:02;;;;;;;4.23;2.90;;;;;;;;;;5483290;26;20270;-59
2024/04/09 07:14:28;;;;;;;2.57;1.93;;;;;;;;;;5482773;26;20275;-59
2024/04/09 07:16:54;;;;;;;3.47;2.27;;;;;;;;;;5482993;26;20770;-59
2024/04/09 07:19:20;;;;;;;3.93;2.10;;;;;;;;;;5492533;26;20278;-58
2024/04/09 07:21:47;;;;;;;4.13;2.00;;;;;;;;;;5481505;26;20225;-59
2024/04/09 07:24:13;;;;;;;4.03;1.80;;;;;;;;;;5482975;26;20224;-60
2024/04/09 07:26:39;;;;;;;2.73;1.80;;;;;;;;;;5483189;26;20224;-58
2024/04/09 07:29:05;;;;;;;2.33;1.70;;;;;;;;;;5482059;26;20613;-58
2024/04/09 07:31:31;;;;;;;1.90;1.60;;;;;;;;;;5483146;26;20933;-59
2024/04/09 07:33:57;;;;;;;2.27;1.57;;;;;;;;;;5485734;26;20228;-60
2024/04/09 07:36:23;;;;;;;3.30;1.90;;;;;;;;;;5485830;26;20228;-60
2024/04/09 07:38:49;;;;;;;5.93;2.03;;;;;;;;;;5486039;26;20609;-60
2024/04/09 07:41:15;;;;;;;1.83;1.43;;;;;;;;;;5487012;26;20274;-60
2024/04/09 07:43:41;;;;;;;5.27;1.93;;;;;;;;;;5486567;26;20228;-60
2024/04/09 07:46:08;;;;;;;1.50;1.27;;;;;;;;;;5486957;26;20768;-60
2024/04/09 07:48:34;;;;;;;3.53;1.60;;;;;;;;;;5513319;26;20292;-60
2024/04/09 07:51:00;;;;;;;2.40;1.60;;;;;;;;;;5486145;26;20696;-60
2024/04/09 07:53:26;;;;;;;1.97;1.30;;;;;;;;;;5485232;26;20310;-61
2024/04/09 07:55:53;;;;;;;2.07;1.43;;;;;;;;;;5483428;26;20324;-60
2024/04/09 07:58:19;;;;;;;2.40;1.20;;;;;;;;;;5483605;26;20251;-60
2024/04/09 08:00:45;;;;;;;2.77;1.73;;;;;;;;;;5484178;26;20225;-60
2024/04/09 08:03:11;;;;;;;3.23;1.60;;;;;;;;;;5482903;26;20255;-61
2024/04/09 08:05:37;;;;;;;5.90;2.00;;;;;;;;;;5480320;26;20232;-59
2024/04/09 08:08:03;;;;;;;4.83;2.03;;;;;;;;;;5484506;26;20268;-61
2024/04/09 08:10:29;;;;;;;3.03;1.90;;;;;;;;;;5481911;26;20221;-61
2024/04/09 08:12:57;;;;;;;11.80;1.90;;;;;;;;;;5485336;26;20228;-62
2024/04/09 08:15:23;;;;;;;5.13;1.80;;;;;;;;;;5480083;26;21004;-58
2024/04/09 08:17:50;;;;;;;6.67;2.10;;;;;;;;;;5484079;26;20337;-58
2024/04/09 08:20:18;;;;;;;6.93;1.80;;;;;;;;;;5483963;26;20696;-58
2024/04/09 08:22:49;;;;;;;3.67;1.70;;;;;;;;;;5484975;26;20264;-59
2024/04/09 08:25:15;;;;;;;2.13;1.30;;;;;;;;;;5483744;26;20279;-59
2024/04/09 08:27:42;;;;;;;3.73;1.80;;;;;;;;;;5484818;26;20247;-58
2024/04/09 08:30:13;;;;;;;6.60;2.10;;;;;;;;;;5478066;26;20292;-60
2024/04/09 08:32:40;;;;;;;4.27;1.53;;;;;;;;;;5484834;26;20901;-59
2024/04/09 08:35:06;;;;;;;4.23;1.63;;;;;;;;;;5483996;26;20286;-60
2024/04/09 08:37:32;;;;;;;5.60;1.63;;;;;;;;;;5480421;26;20230;-58
2024/04/09 08:39:58;;;;;;;3.83;1.57;;;;;;;;;;5482751;26;20389;-60
2024/04/09 08:42:25;;;;;;;2.30;1.60;;;;;;;;;;5487081;26;20236;-59
2024/04/09 08:44:51;;;;;;;1.50;1.20;;;;;;;;;;5484429;26;20792;-59
2024/04/09 08:47:20;;;;;;;2.60;1.63;;;;;;;;;;5485964;26;20734;-59
2024/04/09 08:49:46;;;;;;;2.53;1.50;;;;;;;;;;5491785;26;20312;-59
2024/04/09 08:52:13;;;;;;;2.23;1.27;;;;;;;;;;5484458;26;20271;-59
2024/04/09 08:54:40;;;;;;;3.07;1.57;;;;;;;;;;5483887;26;20267;-60
2024/04/09 08:57:06;;;;;;;3.77;1.30;;;;;;;;;;5484024;26;20229;-59
2024/04/09 08:59:32;;;;;;;2.07;1.00;;;;;;;;;;5483305;26;20271;-59
2024/04/09 09:02:03;;;;;;;4.23;1.40;;;;;;;;;;5495846;26;20318;-59
2024/04/09 09:04:38;;;;;;;4.60;1.57;;;;;;;;;;5483962;26;20240;-58
2024/04/09 09:07:18;;;;;;;8.03;1.40;;;;;;;;;;5482295;26;20680;-59
2024/04/09 09:09:44;;;;;;;3.00;1.37;;;;;;;;;;5480134;26;20232;-58
2024/04/09 09:12:10;;;;;;;1.57;1.07;;;;;;;;;;5485580;26;20267;-58
2024/04/09 09:14:36;;;;;;;4.23;1.00;;;;;;;;;;5484757;26;20340;-59
2024/04/09 09:17:03;;;;;;;2.57;1.43;;;;;;;;;;5485231;26;20229;-59
2024/04/09 09:19:34;;;;;;;3.07;1.20;;;;;;;;;;5483125;26;20283;-59
2024/04/09 09:22:00;;;;;;;3.20;1.30;;;;;;;;;;5497446;26;20746;-60
2024/04/09 09:24:28;;;;;;;3.17;1.30;;;;;;;;;;5497415;26;20423;-59
2024/04/09 09:27:13;;;;;;;5.93;1.20;;;;;;;;;;5483239;26;20720;-61
2024/04/09 09:29:39;;;;;;;2.87;1.20;;;;;;;;;;5485833;26;21193;-58
2024/04/09 09:32:06;;;;;;;1.83;1.23;;;;;;;;;;5485422;26;20275;-59
2024/04/09 09:34:42;;;;;;;2.63;1.07;;;;;;;;;;5479790;26;20747;-60
2024/04/09 09:37:09;;;;;;;2.73;1.40;;;;;;;;;;5481246;26;20228;-60
2024/04/09 09:39:36;;;;;;;4.30;1.23;;;;;;;;;;5483645;26;20232;-61
2024/04/09 09:42:03;;;;;;;2.50;1.43;;;;;;;;;;5485197;26;20546;-58
2024/04/09 09:44:29;;;;;;;2.17;1.30;;;;;;;;;;5484523;26;20263;-59
2024/04/09 09:46:57;;;;;;;3.43;1.50;;;;;;;;;;5448453;26;20267;-59
2024/04/09 09:49:23;;;;;;;4.33;1.33;;;;;;;;;;5480050;26;20260;-59
2024/04/09 09:51:50;;;;;;;1.57;1.47;;;;;;;;;;5483892;26;20259;-59
2024/04/09 09:54:16;;;;;;;3.67;1.40;;;;;;;;;;5477531;26;20328;-60
2024/04/09 09:56:43;;;;;;;2.13;1.13;;;;;;;;;;5484453;26;20229;-60
2024/04/09 09:59:10;;;;;;;2.33;1.50;;;;;;;;;;5482892;26;20337;-59
2024/04/09 10:01:37;;;;;;;2.40;1.40;;;;;;;;;;5479639;26;20267;-59
2024/04/09 10:15:48;;;;;;;5.27;1.33;;;;;;;;;;5229270;27;20275;-59
2024/04/09 10:18:33;;;;;;;2.13;1.27;;;;;;;;;;5240038;27;21014;-59
2024/04/09 10:20:59;;;;;;;6.23;1.20;;;;;;;;;;5232419;27;20683;-58
2024/04/09 10:23:28;;;;;;;3.47;1.60;;;;;;;;;;5230815;27;20240;-59
2024/04/09 10:26:00;;;;;;;3.33;1.33;;;;;;;;;;5237614;27;20270;-59
2024/04/09 10:28:27;;;;;;;5.53;1.80;;;;;;;;;;5226542;27;20770;-59
2024/04/09 10:30:53;;;;;;;4.57;1.60;;;;;;;;;;5238085;27;20912;-59
2024/04/09 10:33:32;;;;;;;1.93;1.40;;;;;;;;;;5237344;27;20236;-58
2024/04/09 10:35:59;;;;;;;4.47;1.40;;;;;;;;;;5219417;27;20248;-59
2024/04/09 10:38:25;;;;;;;3.77;1.63;;;;;;;;;;5225085;27;20237;-59
2024/04/09 10:40:51;;;;;;;3.73;1.50;;;;;;;;;;5206968;27;20704;-59
2024/04/09 10:43:17;;;;;;;4.37;1.67;;;;;;;;;;5204810;27;20241;-59
2024/04/09 10:45:44;;;;;;;5.27;1.53;;;;;;;;;;5217964;27;20244;-59
2024/04/09 10:48:10;;;;;;;4.17;1.40;;;;;;;;;;5246491;27;20235;-58
2024/04/09 10:50:36;;;;;;;2.77;1.53;;;;;;;;;;5272798;27;20319;-59
2024/04/09 10:53:03;;;;;;;2.77;1.53;;;;;;;;;;5261802;27;20244;-59
2024/04/09 10:55:29;;;;;;;3.43;1.50;;;;;;;;;;5252174;27;20994;-58
2024/04/09 10:57:55;;;;;;;5.47;1.60;;;;;;;;;;5204513;27;20256;-57
2024/04/09 11:00:22;;;;;;;3.93;1.60;;;;;;;;;;5205990;27;20279;-57
2024/04/09 11:02:48;;;;;;;3.20;1.60;;;;;;;;;;5212727;27;20249;-56
2024/04/09 11:05:16;;;;;;;6.03;1.60;;;;;;;;;;5228221;27;20632;-57
2024/04/09 11:07:43;;;;;;;4.57;1.70;;;;;;;;;;5212040;27;20292;-57
2024/04/09 11:10:12;;;;;;;3.13;1.23;;;;;;;;;;5223662;27;20676;-57
2024/04/09 11:12:40;;;;;;;2.37;1.20;;;;;;;;;;5229616;27;20708;-58
2024/04/09 11:15:10;;;;;;;1.50;1.20;;;;;;;;;;5237852;27;20229;-58
2024/04/09 11:17:37;;;;;;;5.37;1.37;;;;;;;;;;5215381;27;20231;-58
2024/04/09 11:20:18;;;;;;;3.60;1.57;;;;;;;;;;5241880;27;20574;-57
2024/04/09 11:22:44;;;;;;;3.40;1.40;;;;;;;;;;5229198;27;20578;-57
2024/04/09 11:25:11;;;;;;;2.03;1.10;;;;;;;;;;5219044;27;20628;-58
2024/04/09 11:27:44;;;;;;;2.57;1.57;;;;;;;;;;5207681;27;20336;-58
2024/04/09 11:30:21;;;;;;;4.13;1.97;;;;;;;;;;5210205;27;20241;-58
2024/04/09 11:32:47;;;;;;;3.53;1.40;;;;;;;;;;5241401;27;20282;-58
2024/04/09 11:35:18;;;;;;;1.77;1.20;;;;;;;;;;5228251;27;20239;-59
2024/04/09 11:37:49;;;;;;;3.13;1.30;;;;;;;;;;5227409;27;20232;-58
2024/04/09 11:40:15;;;;;;;2.13;1.20;;;;;;;;;;5234777;27;20236;-59
2024/04/09 11:42:43;;;;;;;4.27;1.47;;;;;;;;;;5207199;27;20225;-58
2024/04/09 11:45:09;;;;;;;2.50;1.30;;;;;;;;;;5226668;27;20267;-58
2024/04/09 11:47:37;;;;;;;2.60;1.70;;;;;;;;;;5231589;27;20731;-58
2024/04/09 11:50:05;;;;;;;2.50;1.47;;;;;;;;;;5227544;27;20240;-58
2024/04/09 11:52:31;;;;;;;4.73;1.50;;;;;;;;;;5225369;27;20236;-59
2024/04/09 11:54:57;;;;;;;2.83;1.33;;;;;;;;;;5241368;27;20375;-61
2024/04/09 11:57:23;;;;;;;3.83;1.30;;;;;;;;;;5240364;27;20774;-60
2024/04/09 11:59:50;;;;;;;2.13;1.60;;;;;;;;;;5241912;27;20228;-60
2024/04/09 12:02:16;;;;;;;3.90;1.40;;;;;;;;;;5241424;27;20236;-61
2024/04/09 12:04:42;;;;;;;2.03;1.20;;;;;;;;;;5224596;27;20276;-61
2024/04/09 12:07:09;;;;;;;3.10;1.30;;;;;;;;;;5221988;27;20705;-61
2024/04/09 12:09:36;;;;;;;2.70;1.10;;;;;;;;;;5225440;27;20275;-60
2024/04/09 12:12:03;;;;;;;5.63;1.63;;;;;;;;;;5238208;27;20264;-60
2024/04/09 12:14:29;;;;;;;9.00;1.73;;;;;;;;;;5240898;27;20660;-60
2024/04/09 12:16:55;;;;;;;3.07;1.30;;;;;;;;;;5241756;27;20240;-60
2024/04/09 12:19:21;;;;;;;5.77;1.50;;;;;;;;;;5240596;27;20334;-60
2024/04/09 12:21:47;;;;;;;1.93;1.50;;;;;;;;;;5218875;27;20249;-59
2024/04/09 12:24:13;;;;;;;2.33;1.10;;;;;;;;;;5240797;27;20705;-60
2024/04/09 12:26:39;;;;;;;4.87;1.40;;;;;;;;;;5241803;27;20232;-60
2024/04/09 12:29:05;;;;;;;3.13;1.73;;;;;;;;;;5207793;27;20237;-60
2024/04/09 12:31:31;;;;;;;3.50;1.30;;;;;;;;;;5218595;27;20236;-60
2024/04/09 12:33:58;;;;;;;2.33;1.30;;;;;;;;;;5222922;27;20236;-59
2024/04/09 12:36:24;;;;;;;6.03;1.80;;;;;;;;;;5214901;27;20692;-60
2024/04/09 12:38:50;;;;;;;14.50;1.97;;;;;;;;;;5226126;27;20239;-60
2024/04/09 12:41:16;;;;;;;2.77;1.50;;;;;;;;;;5235416;27;20271;-60
2024/04/09 12:43:42;;;;;;;4.53;1.37;;;;;;;;;;5227536;27;20692;-59
2024/04/09 12:46:10;;;;;;;3.33;1.50;;;;;;;;;;5225952;27;20233;-60
2024/04/09 12:48:36;;;;;;;7.53;1.50;;;;;;;;;;5239417;27;20671;-60
2024/04/09 12:51:02;;;;;;;2.17;1.40;;;;;;;;;;5241095;27;20258;-60
2024/04/09 12:53:28;;;;;;;6.03;1.50;;;;;;;;;;5241328;27;20227;-59
2024/04/09 12:55:54;;;;;;;1.87;1.03;;;;;;;;;;5236722;27;20550;-60
2024/04/09 12:58:21;;;;;;;3.27;1.83;;;;;;;;;;5239935;27;20236;-59
2024/04/09 13:00:47;;;;;;;5.20;1.90;;;;;;;;;;5241739;27;20216;-58
2024/04/09 13:03:14;;;;;;;5.07;1.50;;;;;;;;;;5232872;27;20268;-59
2024/04/09 13:05:41;;;;;;;5.17;1.80;;;;;;;;;;5208394;27;20276;-59
2024/04/09 13:08:07;;;;;;;3.90;1.70;;;;;;;;;;5227482;27;20239;-60
2024/04/09 13:10:34;;;;;;;1.97;1.23;;;;;;;;;;5219084;27;20836;-59
2024/04/09 13:13:00;;;;;;;6.43;1.60;;;;;;;;;;5230772;27;20371;-61
2024/04/09 13:15:26;;;;;;;3.10;1.40;;;;;;;;;;5241574;27;20251;-60
2024/04/09 13:17:53;;;;;;;4.33;1.50;;;;;;;;;;5237013;27;20232;-58
2024/04/09 13:20:19;;;;;;;2.17;1.33;;;;;;;;;;5233168;27;20279;-61
2024/04/09 13:22:45;;;;;;;4.30;1.67;;;;;;;;;;5235226;27;20240;-62
2024/04/09 13:25:11;;;;;;;3.30;1.57;;;;;;;;;;5216341;27;20237;-60
2024/04/09 13:27:37;;;;;;;3.57;1.67;;;;;;;;;;5208037;27;20284;-59
2024/04/09 13:30:03;;;;;;;4.80;1.47;;;;;;;;;;5233882;27;20240;-61
2024/04/09 13:32:30;;;;;;;3.83;1.33;;;;;;;;;;5212604;27;20292;-62
2024/04/09 13:34:56;;;;;;;2.57;1.37;;;;;;;;;;5208197;27;20264;-61
2024/04/09 13:37:22;;;;;;;4.90;1.40;;;;;;;;;;5217697;27;20568;-65
2024/04/09 13:39:48;;;;;;;3.43;1.27;;;;;;;;;;5228779;27;20237;-62
2024/04/09 13:42:14;;;;;;;3.00;1.80;;;;;;;;;;5208162;27;20225;-62
2024/04/09 13:44:40;;;;;;;3.23;1.40;;;;;;;;;;5235524;27;20244;-62
2024/04/09 13:47:06;;;;;;;4.00;1.30;;;;;;;;;;5208796;27;20228;-62
2024/04/09 13:49:32;;;;;;;4.13;1.70;;;;;;;;;;5228716;27;20240;-62
2024/04/09 13:51:58;;;;;;;4.60;1.70;;;;;;;;;;5240587;27;20738;-62
2024/04/09 13:54:24;;;;;;;2.70;1.40;;;;;;;;;;5231905;27;20274;-62
2024/04/09 13:56:50;;;;;;;3.13;1.53;;;;;;;;;;5235621;27;20232;-63
2024/04/09 13:59:16;;;;;;;5.53;1.70;;;;;;;;;;5237054;27;20224;-63
2024/04/09 14:01:42;;;;;;;2.30;1.47;;;;;;;;;;5236096;27;20259;-62
2024/04/09 14:04:10;;;;;;;4.03;1.87;;;;;;;;;;5221950;27;20237;-62
2024/04/09 14:06:36;;;;;;;5.37;1.50;;;;;;;;;;5222204;27;20282;-62
2024/04/09 14:09:03;;;;;;;4.57;1.50;;;;;;;;;;5230908;27;20243;-62
2024/04/09 14:11:29;;;;;;;4.23;1.50;;;;;;;;;;5229649;27;20232;-62
2024/04/09 14:13:56;;;;;;;3.67;1.70;;;;;;;;;;5227528;27;20359;-62
2024/04/09 14:16:23;;;;;;;2.57;1.40;;;;;;;;;;5207474;27;20490;-60
2024/04/09 14:18:49;;;;;;;4.20;1.67;;;;;;;;;;5232710;27;20548;-62
2024/04/09 14:21:16;;;;;;;6.67;1.83;;;;;;;;;;5227437;27;20245;-62
2024/04/09 14:23:42;;;;;;;3.03;1.30;;;;;;;;;;5224276;27;20256;-62
2024/04/09 14:26:08;;;;;;;3.70;1.30;;;;;;;;;;5235389;27;20364;-62
2024/04/09 14:28:36;;;;;;;4.13;1.77;;;;;;;;;;5229740;27;20724;-62
2024/04/09 14:31:02;;;;;;;3.53;1.73;;;;;;;;;;5226806;27;20240;-62
2024/04/09 14:33:29;;;;;;;3.43;1.70;;;;;;;;;;5229804;27;20780;-62
2024/04/09 14:35:55;;;;;;;4.97;1.60;;;;;;;;;;5235553;27;20286;-62
2024/04/09 14:38:21;;;;;;;4.60;1.50;;;;;;;;;;5215697;27;20233;-62
2024/04/09 14:40:47;;;;;;;4.03;1.53;;;;;;;;;;5223486;27;20263;-63
2024/04/09 14:43:13;;;;;;;3.60;1.40;;;;;;;;;;5216603;27;20854;-62
2024/04/09 14:45:39;;;;;;;3.13;1.30;;;;;;;;;;5235739;27;20239;-62
2024/04/09 14:48:06;;;;;;;6.47;1.53;;;;;;;;;;5239522;27;20270;-62
2024/04/09 14:50:32;;;;;;;4.93;1.63;;;;;;;;;;5239726;27;20299;-63